Portada
METAR-TAF:

METAR-TAF

Aeropuertos :

Kwajalein, Islas Marshall

latitud: 08-43N, longitud: 167-44E, altitud: 3 m

Observación

El informe se hizo hace 23 minutos, a las 06:20 UTC
Temperatura 28°C
Humedad 84%
Presión 1009 hPa
Visibilidad: 16.1 km
Cielo despejado

METAR: PKWA 200620Z AUTO 10SM CLR 28/25 A2980 RMK AO2 T02760246 TSNO

Hora: 18:43 (06:43 UTC)

Pronóstico

El informe se hizo hace 1 hora y 23 minutos, a las 05:20 UTC
Pronóstico válido del 20 a las 06 UTC al 21 a las 06 UTC
Viento 16 kt del este
Visibilidad: 10 km
Nubes dispersas a una altura de 1000 ft
Nubes dispersas a una altura de 3500 ft
Cielo nuboso a una altura de 9000 ft
chaparrones en las proximidades,

TAF: PKWA 200520Z 2006/2106 08016KT P6SM VCSH SCT010 SCT035 BKN090

Observaciones y pronósticos meteorológicos de más de 4000 aeropuertos (mensajes METAR y TAF).

Los puntos amarillos y rojos representan las estaciones disponibles.

Ponga el ratón en el punto deseado para ver el nombre de la estación.

Haga clic para ver las observaciones y los pronósticos meteorológicos.

Para cambiar el mapa : haga clic en los botones verdes con una cruz de color negro para hacer un zoom, en el botón verde con un guión para alejar o en las flechas verdes para mapas adyacentes.


METAR-TAF: